Terminal Aerodrome Forecast
Issued by NWS Newport/Morehead City, NC

Home | Current Version | Previous Version | Text Only | Print | Product List | Glossary Off
Versions: 1 2 3 4 5 6 7 8 9 10 11 12 13 14 15 16

000
FTUS42 KMHX 231700
TAFEWN
TAF
KEWN 231720Z 2318/2418 06010KT P6SM VCSH OVC040
     FM232000 08010KT 5SM -RA BR OVC025
     FM232300 12010KT 3SM RA BR SCT005 OVC008 WS015/13035KT
     FM240600 17012G20KT 2SM RA BR OVC004 WS015/20040KT=

USA.gov is the U.S. government's official web portal to all federal, state and local government web resources and services.